Terminal Aerodrome Forecast
Issued by NWS

Home | Current Version | Previous Version | Text Only | Print | Product List | Glossary On
Versions: 1 2 3 4 5 6 7 8 9 10 11 12 13 14 15 16 17
000
FTAK31 PAJN 241140
TAFAJN
TAF
PAJN 241140Z 2412/2512 33006KT P6SM SCT035 BKN050
      TEMPO 2415/2419 VRB04KT FEW010 BKN035
     FM241900 24008KT P6SM SCT035 SCT050
     FM250500 28004KT P6SM SCT025 BKN035=

USA.gov is the U.S. government's official web portal to all federal, state and local government web resources and services.